Time;durP1;ratioP1;P1;durP2;ratioP2;P2;SDS_P1;SDS_P2;PMS_P1;PMS_P2;Temp;Humidity;BMP_temperature;BMP_pressure;BME280_temperature;BME280_humidity;BME280_pressure;Samples;Min_cycle;Max_cycle;Signal;HPM_P1;HPM_P2
2023/01/15 00:00:24;;;;;;;2.20;1.02;;;10.10;99.90;;;;;;4991147;28;20186;-81
2023/01/15 00:02:50;;;;;;;2.20;0.80;;;10.10;99.90;;;;;;5029018;28;20181;-81
2023/01/15 00:05:16;;;;;;;2.13;1.07;;;10.10;99.90;;;;;;5012442;28;20257;-81
2023/01/15 00:07:42;;;;;;;2.80;1.13;;;10.00;99.90;;;;;;5033014;28;20181;-81
2023/01/15 00:10:09;;;;;;;2.42;0.85;;;9.90;99.90;;;;;;5044467;28;20604;-80
2023/01/15 00:12:35;;;;;;;2.92;1.30;;;9.90;99.90;;;;;;5051099;28;20322;-81
2023/01/15 00:15:00;;;;;;;2.40;0.60;;;9.80;99.90;;;;;;5050848;28;20249;-82
2023/01/15 00:17:26;;;;;;;2.97;1.05;;;9.80;99.90;;;;;;5046956;28;20241;-81
2023/01/15 00:19:52;;;;;;;1.80;0.60;;;9.80;99.90;;;;;;5038116;28;20616;-82
2023/01/15 00:22:18;;;;;;;3.83;1.10;;;9.70;99.90;;;;;;5037736;28;20195;-82
2023/01/15 00:27:39;;;;;;;3.75;2.00;;;9.60;99.90;;;;;;5034671;28;20204;-83
2023/01/15 00:30:09;;;;;;;3.38;1.45;;;9.60;99.90;;;;;;5030381;28;20173;-82
2023/01/15 00:32:37;;;;;;;2.47;1.17;;;9.60;99.90;;;;;;5013008;28;20198;-82
2023/01/15 00:35:03;;;;;;;3.92;1.00;;;9.50;99.90;;;;;;5029728;28;20197;-83
2023/01/15 00:37:28;;;;;;;3.43;0.70;;;9.60;99.90;;;;;;5033445;28;20176;-82
2023/01/15 00:39:54;;;;;;;3.20;1.20;;;9.50;99.90;;;;;;5039903;28;20553;-82
2023/01/15 00:42:21;;;;;;;1.92;1.00;;;9.40;99.90;;;;;;5043112;28;20223;-83
2023/01/15 00:44:47;;;;;;;2.33;0.93;;;9.40;99.90;;;;;;5046561;28;20166;-82
2023/01/15 00:47:15;;;;;;;1.90;0.80;;;9.40;99.90;;;;;;5027549;28;20277;-82
2023/01/15 00:49:42;;;;;;;2.78;0.77;;;9.30;99.90;;;;;;5003047;28;20744;-82
2023/01/15 00:52:07;;;;;;;2.45;0.60;;;9.30;99.90;;;;;;5035892;28;20198;-82
2023/01/15 00:54:33;;;;;;;4.13;0.80;;;9.30;99.90;;;;;;5036928;28;20166;-83
2023/01/15 00:56:59;;;;;;;2.67;1.43;;;9.20;99.90;;;;;;5046728;28;20616;-83
2023/01/15 00:59:25;;;;;;;1.83;0.90;;;9.20;99.90;;;;;;5045813;28;20172;-83
2023/01/15 01:01:51;;;;;;;1.60;1.00;;;9.20;99.90;;;;;;5026311;28;20608;-83
2023/01/15 01:04:17;;;;;;;16.70;8.20;;;9.20;99.90;;;;;;5046005;28;20174;-84
2023/01/15 01:06:43;;;;;;;7.30;3.37;;;9.20;99.90;;;;;;5045315;28;20659;-84
2023/01/15 01:09:14;;;;;;;6.57;3.40;;;9.20;99.90;;;;;;5043682;28;20177;-84
2023/01/15 01:11:40;;;;;;;2.63;1.10;;;9.20;99.90;;;;;;5023127;28;20292;-84
2023/01/15 01:14:05;;;;;;;3.70;0.97;;;9.20;99.90;;;;;;5041076;28;20662;-84
2023/01/15 01:16:37;;;;;;;2.38;0.70;;;9.20;99.90;;;;;;5032645;28;20602;-83
2023/01/15 01:19:16;;;;;;;1.40;0.60;;;9.20;99.90;;;;;;5028662;28;20181;-83
2023/01/15 01:21:44;;;;;;;1.27;0.50;;;9.20;99.90;;;;;;5044404;28;20180;-83
2023/01/15 01:24:11;;;;;;;1.55;0.50;;;9.20;99.90;;;;;;5045918;28;20182;-83
2023/01/15 01:26:37;;;;;;;1.30;0.43;;;9.20;99.90;;;;;;5046500;28;20205;-84
2023/01/15 01:29:03;;;;;;;3.30;0.60;;;9.20;99.90;;;;;;5045610;28;20472;-83
2023/01/15 01:31:29;;;;;;;1.20;0.50;;;9.20;99.90;;;;;;5011587;28;20284;-83
2023/01/15 01:33:57;;;;;;;1.23;0.50;;;9.20;99.90;;;;;;5008343;28;20275;-84
2023/01/15 01:36:29;;;;;;;1.65;0.50;;;9.20;99.90;;;;;;5042842;28;20212;-83
2023/01/15 01:38:55;;;;;;;2.45;0.57;;;9.20;99.90;;;;;;5035077;28;20174;-82
2023/01/15 01:41:20;;;;;;;1.63;0.60;;;9.10;99.90;;;;;;5013991;28;20529;-82
2023/01/15 01:44:12;;;;;;;1.63;0.50;;;9.10;99.90;;;;;;5033818;28;20591;-83
2023/01/15 01:46:38;;;;;;;1.48;0.50;;;9.10;99.90;;;;;;4980566;28;20296;-84
2023/01/15 01:49:10;;;;;;;2.53;0.50;;;9.10;99.90;;;;;;5035671;28;20208;-83
2023/01/15 01:51:49;;;;;;;1.20;0.50;;;9.10;99.90;;;;;;5040382;28;20208;-82
2023/01/15 01:54:20;;;;;;;1.77;0.50;;;9.10;99.90;;;;;;5000259;28;20173;-81
2023/01/15 01:56:48;;;;;;;1.20;0.50;;;9.10;99.90;;;;;;5032041;28;20197;-82
2023/01/15 01:59:17;;;;;;;2.03;0.50;;;9.10;99.90;;;;;;5015432;28;20193;-82
2023/01/15 02:01:43;;;;;;;1.20;0.50;;;9.10;99.90;;;;;;5023853;28;20220;-82
2023/01/15 02:04:10;;;;;;;1.17;0.50;;;9.10;99.90;;;;;;5027867;28;20173;-83
2023/01/15 02:06:38;;;;;;;1.50;0.50;;;9.10;99.90;;;;;;5032846;28;20200;-83
2023/01/15 02:09:04;;;;;;;1.63;0.60;;;9.10;99.90;;;;;;5016121;28;20653;-83
2023/01/15 02:11:33;;;;;;;1.10;0.50;;;9.10;99.90;;;;;;5035658;28;20210;-83
2023/01/15 02:14:10;;;;;;;2.10;0.68;;;9.10;99.90;;;;;;5041839;28;20532;-83
2023/01/15 02:16:44;;;;;;;1.30;0.63;;;9.10;99.90;;;;;;5026490;28;20216;-83
2023/01/15 02:19:31;;;;;;;1.10;0.50;;;9.20;99.90;;;;;;5023872;28;20184;-82
2023/01/15 02:22:18;;;;;;;1.10;0.50;;;9.20;99.90;;;;;;5048641;28;20256;-82
2023/01/15 02:24:53;;;;;;;1.45;0.50;;;9.20;99.90;;;;;;5031686;28;20518;-82
2023/01/15 02:27:23;;;;;;;1.95;0.50;;;9.20;99.90;;;;;;5027614;28;20165;-81
2023/01/15 02:30:08;;;;;;;1.48;0.40;;;9.20;99.90;;;;;;5032073;28;20169;-82
2023/01/15 02:33:13;;;;;;;1.80;0.50;;;9.10;99.90;;;;;;5031782;28;20269;-83
2023/01/15 02:35:45;;;;;;;2.30;0.50;;;9.20;99.90;;;;;;5021520;28;20537;-83
2023/01/15 02:38:17;;;;;;;2.13;0.50;;;9.20;99.90;;;;;;5035203;28;20666;-83
2023/01/15 02:40:50;;;;;;;2.65;0.95;;;9.10;99.90;;;;;;5018490;28;20200;-83
2023/01/15 02:43:21;;;;;;;1.05;0.45;;;9.20;99.90;;;;;;5034687;28;20245;-83
2023/01/15 02:45:51;;;;;;;1.90;0.50;;;9.20;99.90;;;;;;5033851;28;20190;-83
2023/01/15 02:48:22;;;;;;;3.55;0.90;;;9.20;99.90;;;;;;5042571;28;20174;-82
2023/01/15 02:50:53;;;;;;;2.53;0.60;;;9.20;99.90;;;;;;5050978;28;20229;-82
2023/01/15 02:53:27;;;;;;;1.70;0.52;;;9.20;99.90;;;;;;5031781;28;20213;-82
2023/01/15 02:56:01;;;;;;;1.20;0.40;;;9.20;99.90;;;;;;5024107;28;20253;-82
2023/01/15 02:58:35;;;;;;;1.17;0.50;;;9.20;99.90;;;;;;5027795;28;20183;-81
2023/01/15 03:01:09;;;;;;;1.13;0.43;;;9.20;99.90;;;;;;5048474;28;20185;-82
2023/01/15 03:03:48;;;;;;;2.67;0.60;;;9.20;99.90;;;;;;5033100;28;20185;-82
2023/01/15 03:06:23;;;;;;;1.70;0.50;;;9.20;99.90;;;;;;5013654;28;20212;-82
2023/01/15 03:08:49;;;;;;;1.58;0.40;;;9.20;99.90;;;;;;5046925;28;20184;-82
2023/01/15 03:11:18;;;;;;;1.25;0.55;;;9.20;99.90;;;;;;5013297;28;20197;-82
2023/01/15 03:14:08;;;;;;;3.80;0.50;;;9.20;99.90;;;;;;5014157;28;20189;-82
2023/01/15 03:16:47;;;;;;;1.83;0.75;;;9.20;99.90;;;;;;5029965;28;20254;-82
2023/01/15 03:19:32;;;;;;;1.20;0.50;;;9.10;99.90;;;;;;5035818;28;20265;-82
2023/01/15 03:22:27;;;;;;;3.22;0.52;;;9.20;99.90;;;;;;5026022;28;20163;-83
2023/01/15 03:25:02;;;;;;;1.70;0.60;;;9.20;99.90;;;;;;5017435;28;20580;-82
2023/01/15 03:27:32;;;;;;;1.33;0.60;;;9.10;99.90;;;;;;5009056;28;20181;-82
2023/01/15 03:30:04;;;;;;;1.58;0.68;;;9.20;99.90;;;;;;5023574;28;20181;-82
2023/01/15 03:32:30;;;;;;;1.95;0.50;;;9.20;99.90;;;;;;5025654;28;20232;-82
2023/01/15 03:34:56;;;;;;;1.63;0.50;;;9.20;99.90;;;;;;5026515;28;20197;-82
2023/01/15 03:37:26;;;;;;;4.35;0.52;;;9.20;99.90;;;;;;5011267;28;20179;-82
2023/01/15 03:39:54;;;;;;;1.33;0.50;;;9.20;99.90;;;;;;5012233;28;20170;-82
2023/01/15 03:42:49;;;;;;;1.27;0.50;;;9.30;99.90;;;;;;5029358;28;20185;-82
2023/01/15 03:45:23;;;;;;;1.70;0.55;;;9.30;99.90;;;;;;5004039;28;20616;-84
2023/01/15 03:48:04;;;;;;;1.70;0.70;;;9.30;99.90;;;;;;5003766;28;20362;-84
2023/01/15 03:50:40;;;;;;;1.15;0.40;;;9.40;99.90;;;;;;5019214;28;20179;-83
2023/01/15 03:53:17;;;;;;;2.35;0.60;;;9.30;99.90;;;;;;5020950;28;20212;-83
2023/01/15 03:56:31;;;;;;;1.10;0.50;;;9.40;99.90;;;;;;5003740;28;20190;-83
2023/01/15 03:59:15;;;;;;;1.35;0.50;;;9.40;99.90;;;;;;5023164;28;20186;-83
2023/01/15 04:01:53;;;;;;;2.97;0.52;;;9.40;99.90;;;;;;5025822;28;20170;-82
2023/01/15 04:04:24;;;;;;;2.17;0.50;;;9.40;99.90;;;;;;5019001;28;20673;-82
2023/01/15 04:06:52;;;;;;;2.85;0.55;;;9.40;99.90;;;;;;4984642;28;20209;-83
2023/01/15 04:09:19;;;;;;;1.45;0.40;;;9.40;99.90;;;;;;5026672;28;20193;-83
2023/01/15 04:11:46;;;;;;;1.85;0.60;;;9.40;99.90;;;;;;5007863;28;20289;-83
2023/01/15 04:14:13;;;;;;;1.75;0.40;;;9.40;99.90;;;;;;5007180;28;20226;-83
2023/01/15 04:16:57;;;;;;;1.40;0.50;;;9.30;99.90;;;;;;4993155;28;20458;-83
2023/01/15 04:19:33;;;;;;;1.25;0.47;;;9.40;99.90;;;;;;4995143;28;20190;-82
2023/01/15 04:22:03;;;;;;;1.48;0.60;;;9.40;99.90;;;;;;5023001;28;20178;-81
2023/01/15 04:24:28;;;;;;;1.70;0.60;;;9.40;99.90;;;;;;5017976;28;20324;-82
2023/01/15 04:26:54;;;;;;;3.00;0.50;;;9.40;99.90;;;;;;5017633;28;20749;-81
2023/01/15 04:29:21;;;;;;;2.10;0.50;;;9.40;99.90;;;;;;4989668;28;20174;-82
2023/01/15 04:31:46;;;;;;;2.17;0.50;;;9.40;99.90;;;;;;5022882;28;20254;-82
2023/01/15 04:34:12;;;;;;;2.50;0.60;;;9.30;99.90;;;;;;4971773;28;21098;-83
2023/01/15 04:36:38;;;;;;;1.30;0.50;;;9.30;99.90;;;;;;5011596;28;20704;-83
2023/01/15 04:39:04;;;;;;;2.37;0.60;;;9.30;99.90;;;;;;5011788;28;20174;-83
2023/01/15 04:44:14;;;;;;;2.00;0.50;;;9.30;99.90;;;;;;5017749;28;20253;-82
2023/01/15 04:46:43;;;;;;;3.15;0.50;;;9.30;99.90;;;;;;5018995;28;20745;-82
2023/01/15 04:49:12;;;;;;;3.20;0.57;;;9.30;99.90;;;;;;5019396;28;20178;-82
2023/01/15 04:51:38;;;;;;;2.88;0.50;;;9.30;99.90;;;;;;5014583;28;20205;-82
2023/01/15 04:54:05;;;;;;;2.05;0.50;;;9.30;99.90;;;;;;4994891;28;20644;-83
2023/01/15 04:56:31;;;;;;;1.60;0.50;;;9.30;99.90;;;;;;5015347;28;20716;-83
2023/01/15 04:59:01;;;;;;;6.22;0.60;;;9.30;99.90;;;;;;4984100;28;20175;-82
2023/01/15 05:01:27;;;;;;;4.43;0.63;;;9.30;99.90;;;;;;5009131;28;20162;-82
2023/01/15 05:03:53;;;;;;;2.80;0.57;;;9.40;99.90;;;;;;5009185;28;20264;-82
2023/01/15 05:06:18;;;;;;;2.70;0.70;;;9.40;99.90;;;;;;4981249;28;20218;-82
2023/01/15 05:08:44;;;;;;;4.30;0.70;;;9.30;99.90;;;;;;5019514;28;20178;-82
2023/01/15 05:11:10;;;;;;;1.70;0.57;;;9.30;99.90;;;;;;5020043;28;20591;-82
2023/01/15 05:13:36;;;;;;;1.80;0.60;;;9.40;99.90;;;;;;5019891;28;21240;-82
2023/01/15 05:16:19;;;;;;;2.67;0.60;;;9.30;99.90;;;;;;5023868;28;20973;-82
2023/01/15 05:18:45;;;;;;;2.63;0.68;;;9.30;99.90;;;;;;5028736;28;20573;-82
2023/01/15 05:21:20;;;;;;;1.92;0.60;;;9.30;99.90;;;;;;5025651;28;20170;-83
2023/01/15 05:23:52;;;;;;;5.63;0.80;;;9.30;99.90;;;;;;5010369;28;20176;-82
2023/01/15 05:26:18;;;;;;;2.15;0.60;;;9.30;99.90;;;;;;5013483;28;20201;-82
2023/01/15 05:28:44;;;;;;;2.88;0.70;;;9.40;99.90;;;;;;5031859;28;20220;-82
2023/01/15 05:31:16;;;;;;;2.77;0.60;;;9.40;99.90;;;;;;5030215;28;20169;-82
2023/01/15 05:33:42;;;;;;;2.95;0.60;;;9.30;99.90;;;;;;5030634;28;20624;-83
2023/01/15 05:36:13;;;;;;;2.28;0.65;;;9.40;99.90;;;;;;5029480;28;20198;-82
2023/01/15 05:38:39;;;;;;;4.53;0.60;;;9.40;99.90;;;;;;5011146;28;20170;-82
2023/01/15 05:44:04;;;;;;;3.28;0.80;;;9.40;99.90;;;;;;5015203;28;20178;-82
2023/01/15 05:46:31;;;;;;;2.20;0.60;;;9.50;99.90;;;;;;5033382;28;20201;-82
2023/01/15 05:49:06;;;;;;;5.25;0.70;;;9.50;99.90;;;;;;5032852;28;20186;-82
2023/01/15 05:51:35;;;;;;;4.03;0.70;;;9.50;99.90;;;;;;5031006;28;20174;-84
2023/01/15 05:54:01;;;;;;;1.58;0.60;;;9.50;99.90;;;;;;5031139;28;20175;-83
2023/01/15 05:56:27;;;;;;;4.47;0.80;;;9.50;99.90;;;;;;5031427;28;20202;-83
2023/01/15 05:58:53;;;;;;;1.97;0.50;;;9.50;99.90;;;;;;5029837;28;20234;-83
2023/01/15 06:01:19;;;;;;;4.43;0.60;;;9.50;99.90;;;;;;5032010;28;20194;-83
2023/01/15 06:03:45;;;;;;;2.60;0.60;;;9.50;99.90;;;;;;5030924;28;20178;-83
2023/01/15 06:06:16;;;;;;;3.95;0.70;;;9.50;99.90;;;;;;5029850;28;20205;-82
2023/01/15 06:08:42;;;;;;;1.45;0.50;;;9.50;99.90;;;;;;5027401;28;20174;-82
2023/01/15 06:11:09;;;;;;;2.75;0.50;;;9.50;99.90;;;;;;4995789;28;20174;-83
2023/01/15 06:13:36;;;;;;;3.53;0.60;;;9.60;99.90;;;;;;5033394;28;20201;-83
2023/01/15 06:16:02;;;;;;;4.25;0.60;;;9.50;99.90;;;;;;5036146;28;20202;-83
2023/01/15 06:22:30;;;;;;;2.13;0.60;;;9.50;99.90;;;;;;5023287;22;20608;-78
2023/01/15 06:24:55;;;;;;;3.63;0.90;;;9.50;99.90;;;;;;5036558;28;20197;-79
2023/01/15 06:27:21;;;;;;;2.57;0.60;;;9.50;99.90;;;;;;5056070;28;20594;-79
2023/01/15 06:29:47;;;;;;;2.73;0.60;;;9.50;99.90;;;;;;5033507;28;20547;-79
2023/01/15 06:32:16;;;;;;;2.40;0.60;;;9.40;99.90;;;;;;5033297;28;20204;-79
2023/01/15 06:34:43;;;;;;;1.60;0.55;;;9.40;99.90;;;;;;5050601;28;20780;-79
2023/01/15 06:37:09;;;;;;;2.00;0.60;;;9.40;99.90;;;;;;5037463;28;20200;-80
2023/01/15 06:39:34;;;;;;;2.13;0.50;;;9.40;99.90;;;;;;5037000;28;20238;-78
2023/01/15 06:47:29;;;;;;;2.78;0.70;;;9.30;99.90;;;;;;5053580;28;20250;-79
2023/01/15 06:49:56;;;;;;;1.52;0.50;;;9.30;99.90;;;;;;5053127;28;20172;-79
2023/01/15 06:52:24;;;;;;;1.73;0.60;;;9.20;99.90;;;;;;5071450;28;20207;-79
2023/01/15 06:54:50;;;;;;;2.45;0.80;;;9.20;99.90;;;;;;5036688;28;20222;-79
2023/01/15 06:57:17;;;;;;;2.43;0.50;;;9.20;99.90;;;;;;5053312;28;20171;-79
2023/01/15 06:59:43;;;;;;;2.17;0.50;;;9.20;99.90;;;;;;5070865;28;20604;-79
2023/01/15 07:02:10;;;;;;;2.40;0.50;;;9.20;99.90;;;;;;5070890;28;20172;-78
2023/01/15 07:04:36;;;;;;;1.90;0.50;;;9.20;99.90;;;;;;5071288;28;20192;-78
2023/01/15 07:07:02;;;;;;;3.10;0.60;;;9.20;99.90;;;;;;5053172;28;20574;-78
2023/01/15 07:09:27;;;;;;;2.80;0.57;;;9.20;99.90;;;;;;5071809;28;20176;-78
2023/01/15 07:11:56;;;;;;;2.17;0.50;;;9.10;99.90;;;;;;5070141;28;20192;-79
2023/01/15 07:14:31;;;;;;;1.50;0.45;;;9.10;99.90;;;;;;5037298;28;20794;-79
2023/01/15 07:16:58;;;;;;;2.15;0.50;;;9.10;99.90;;;;;;5036887;28;20640;-79
2023/01/15 07:19:26;;;;;;;1.73;0.50;;;9.10;99.90;;;;;;5070274;28;20177;-79
2023/01/15 07:21:53;;;;;;;3.25;0.50;;;9.00;99.90;;;;;;5070281;28;20176;-79
2023/01/15 07:24:19;;;;;;;1.90;0.60;;;9.00;99.90;;;;;;5053663;28;20200;-79
2023/01/15 07:26:45;;;;;;;2.75;0.55;;;9.00;99.90;;;;;;5070223;28;20671;-79
2023/01/15 07:29:12;;;;;;;2.75;0.50;;;9.00;99.90;;;;;;5036719;28;20233;-79
2023/01/15 07:31:37;;;;;;;1.20;0.40;;;8.90;99.90;;;;;;5070073;28;20282;-78
2023/01/15 07:34:06;;;;;;;1.20;0.47;;;8.90;99.90;;;;;;5070849;28;20212;-78
2023/01/15 07:36:32;;;;;;;2.00;0.40;;;8.80;99.90;;;;;;5036777;28;20211;-79
2023/01/15 07:38:57;;;;;;;1.30;0.50;;;8.80;99.90;;;;;;5053259;28;20571;-79
2023/01/15 07:49:45;;;;;;;2.33;0.60;;;8.80;99.90;;;;;;5053327;28;20279;-78
2023/01/15 07:52:29;;;;;;;1.48;0.55;;;8.80;99.90;;;;;;5053728;28;20207;-78
2023/01/15 07:54:54;;;;;;;2.50;0.50;;;8.80;99.90;;;;;;5021010;28;20180;-79
2023/01/15 07:57:23;;;;;;;3.00;0.50;;;8.70;99.90;;;;;;5072509;28;20179;-79
2023/01/15 07:59:50;;;;;;;1.83;0.50;;;8.80;99.90;;;;;;5070701;28;20202;-79
2023/01/15 08:02:16;;;;;;;1.50;0.60;;;8.80;99.90;;;;;;5070649;28;20592;-80
2023/01/15 08:04:46;;;;;;;1.87;0.50;;;8.70;99.90;;;;;;5069237;28;20196;-79
2023/01/15 08:07:13;;;;;;;1.30;0.50;;;8.80;99.90;;;;;;5070656;28;20575;-79
2023/01/15 08:09:38;;;;;;;1.65;0.50;;;8.70;99.90;;;;;;5051482;28;20271;-78
2023/01/15 08:17:34;;;;;;;1.17;0.40;;;8.70;99.90;;;;;;5052275;28;20203;-79
2023/01/15 08:20:02;;;;;;;3.05;0.60;;;8.70;99.90;;;;;;5051599;28;20164;-78
2023/01/15 08:22:31;;;;;;;1.13;0.52;;;8.70;99.90;;;;;;5050213;28;20169;-79
2023/01/15 08:24:56;;;;;;;1.08;0.40;;;8.70;99.90;;;;;;5032264;28;20189;-78
2023/01/15 08:27:22;;;;;;;1.73;0.60;;;8.70;99.90;;;;;;5060010;28;20172;-79
2023/01/15 08:29:52;;;;;;;1.10;0.40;;;8.60;99.90;;;;;;5059120;28;20937;-79
2023/01/15 08:32:18;;;;;;;1.10;0.40;;;8.60;99.90;;;;;;5034939;28;20661;-79
2023/01/15 08:34:43;;;;;;;2.13;0.50;;;8.60;99.90;;;;;;5050959;28;20594;-78
2023/01/15 08:37:09;;;;;;;1.70;0.60;;;8.50;99.90;;;;;;5064323;28;20567;-79
2023/01/15 08:39:35;;;;;;;1.33;0.43;;;8.50;99.90;;;;;;5043246;28;20533;-80
2023/01/15 08:42:12;;;;;;;1.50;0.55;;;8.40;99.90;;;;;;5031355;28;20177;-78
2023/01/15 08:44:38;;;;;;;1.60;0.50;;;8.30;99.90;;;;;;5039355;28;20193;-80
2023/01/15 08:47:03;;;;;;;1.87;0.50;;;8.20;99.90;;;;;;5059421;28;20179;-79
2023/01/15 08:49:29;;;;;;;1.30;0.50;;;8.20;99.90;;;;;;5052525;28;20173;-80
2023/01/15 08:51:57;;;;;;;1.63;0.50;;;8.10;99.90;;;;;;5041799;28;20205;-79
2023/01/15 08:54:24;;;;;;;1.10;0.43;;;8.10;99.90;;;;;;5043018;28;20199;-79
2023/01/15 08:56:49;;;;;;;2.15;0.50;;;8.10;99.90;;;;;;5064633;28;20168;-79
2023/01/15 08:59:16;;;;;;;1.57;0.50;;;8.00;99.90;;;;;;5039478;28;20195;-79
2023/01/15 09:01:43;;;;;;;1.90;0.50;;;8.00;99.90;;;;;;5030636;28;20260;-79
2023/01/15 09:04:13;;;;;;;1.63;0.50;;;8.00;99.90;;;;;;5049001;28;20187;-79
2023/01/15 09:06:38;;;;;;;2.90;0.70;;;8.00;99.90;;;;;;5049390;28;20279;-79
2023/01/15 09:09:06;;;;;;;1.40;0.60;;;8.00;99.90;;;;;;5047835;28;20276;-78
2023/01/15 09:11:35;;;;;;;1.30;0.63;;;8.00;99.90;;;;;;5047238;28;20583;-78
2023/01/15 09:14:01;;;;;;;2.70;0.60;;;8.00;99.90;;;;;;4997883;28;20192;-79
2023/01/15 09:16:30;;;;;;;1.93;0.50;;;8.10;99.90;;;;;;5049288;28;20219;-79
2023/01/15 09:18:56;;;;;;;1.80;0.50;;;8.10;99.90;;;;;;5031094;28;20576;-79
2023/01/15 09:21:22;;;;;;;1.60;0.70;;;8.10;99.90;;;;;;5047832;28;20165;-79
2023/01/15 09:23:48;;;;;;;3.10;0.70;;;8.10;99.90;;;;;;5046651;28;20754;-79
2023/01/15 09:26:46;;;;;;;1.70;0.60;;;8.20;99.90;;;;;;5031721;28;20203;-78
2023/01/15 09:29:12;;;;;;;1.80;0.60;;;8.30;99.90;;;;;;5036754;28;20189;-78
2023/01/15 09:31:38;;;;;;;1.60;0.60;;;8.30;99.90;;;;;;5013962;28;20179;-78
2023/01/15 09:34:04;;;;;;;1.93;0.60;;;8.30;99.90;;;;;;5048830;28;20189;-78
2023/01/15 09:36:35;;;;;;;2.17;0.65;;;8.30;99.90;;;;;;5032446;28;20276;-78
2023/01/15 09:39:02;;;;;;;2.90;0.60;;;8.30;99.90;;;;;;5031485;28;20196;-77
2023/01/15 09:42:11;;;;;;;2.42;0.70;;;8.40;99.90;;;;;;5030174;28;20263;-76
2023/01/15 09:45:01;;;;;;;2.85;0.80;;;8.30;99.90;;;;;;5014549;28;20295;-76
2023/01/15 09:47:39;;;;;;;3.35;0.60;;;8.30;99.90;;;;;;5014459;28;20206;-75
2023/01/15 09:50:26;;;;;;;3.63;0.75;;;8.40;99.90;;;;;;5048219;28;20303;-76
2023/01/15 09:53:18;;;;;;;3.03;0.73;;;8.40;99.90;;;;;;5013432;28;20209;-76
2023/01/15 09:55:49;;;;;;;3.55;0.70;;;8.60;99.90;;;;;;5014259;28;20177;-76
2023/01/15 09:58:18;;;;;;;2.42;0.73;;;8.70;99.90;;;;;;5047535;28;20208;-77
2023/01/15 10:00:49;;;;;;;2.28;1.00;;;8.80;99.90;;;;;;5030411;28;20268;-77
2023/01/15 10:03:55;;;;;;;2.35;0.70;;;8.90;99.90;;;;;;5031876;28;20288;-76
2023/01/15 10:06:31;;;;;;;1.35;0.60;;;9.00;99.90;;;;;;4973807;28;20170;-77
2023/01/15 10:09:11;;;;;;;1.90;0.80;;;9.10;99.90;;;;;;5046181;28;20299;-77
2023/01/15 10:14:44;;;;;;;5.38;1.30;;;9.20;99.90;;;;;;5034050;28;20279;-77
2023/01/15 10:17:27;;;;;;;4.45;0.63;;;9.20;99.90;;;;;;5034242;28;20180;-77
2023/01/15 10:19:54;;;;;;;3.15;0.70;;;9.30;99.90;;;;;;5050480;28;20196;-78
2023/01/15 10:22:41;;;;;;;6.30;0.80;;;9.30;99.90;;;;;;5017222;28;20173;-77
2023/01/15 10:25:15;;;;;;;2.70;0.60;;;9.40;99.90;;;;;;5050911;28;20177;-77
2023/01/15 10:27:45;;;;;;;2.65;0.75;;;9.50;99.90;;;;;;5033791;28;20176;-78
2023/01/15 10:30:45;;;;;;;2.17;0.80;;;9.50;99.90;;;;;;5051601;28;20694;-78
2023/01/15 10:33:28;;;;;;;5.38;0.70;;;9.60;99.90;;;;;;5049674;28;20212;-78
2023/01/15 10:36:06;;;;;;;2.88;0.80;;;9.70;99.90;;;;;;5052103;28;20169;-78
2023/01/15 10:38:38;;;;;;;1.42;0.70;;;9.70;99.90;;;;;;5051651;28;20247;-76
2023/01/15 10:41:21;;;;;;;2.58;0.75;;;9.80;99.90;;;;;;5051331;28;20177;-78
2023/01/15 10:44:13;;;;;;;4.00;0.95;;;9.80;99.90;;;;;;5033437;28;20193;-78
2023/01/15 10:46:42;;;;;;;3.15;0.85;;;9.90;99.90;;;;;;5033793;28;20191;-79
2023/01/15 10:49:15;;;;;;;2.53;0.80;;;9.90;99.90;;;;;;5016421;28;20268;-78
2023/01/15 10:51:55;;;;;;;3.78;0.80;;;9.90;99.90;;;;;;5020246;28;20252;-78
2023/01/15 10:54:39;;;;;;;3.35;0.70;;;10.00;99.90;;;;;;5054780;28;20184;-79
2023/01/15 10:57:27;;;;;;;7.65;0.98;;;10.00;99.90;;;;;;5033355;28;20165;-79
2023/01/15 10:59:58;;;;;;;2.90;0.70;;;10.00;99.90;;;;;;5050698;28;20499;-77
2023/01/15 11:02:43;;;;;;;3.22;0.60;;;10.10;99.90;;;;;;5032974;28;20188;-78
2023/01/15 11:05:21;;;;;;;2.63;0.70;;;10.10;99.90;;;;;;5033534;28;20173;-78
2023/01/15 11:07:49;;;;;;;2.28;0.70;;;10.20;99.90;;;;;;5051523;28;20693;-78
2023/01/15 11:10:18;;;;;;;2.72;0.70;;;10.20;99.90;;;;;;5050844;28;20177;-78
2023/01/15 11:21:19;;;;;;;3.33;0.70;;;10.40;99.90;;;;;;5050754;28;20171;-78
2023/01/15 11:23:46;;;;;;;1.83;0.60;;;10.40;99.90;;;;;;5050267;28;20720;-78
2023/01/15 11:26:23;;;;;;;3.15;0.73;;;10.40;99.90;;;;;;5022230;28;20193;-78
2023/01/15 11:28:49;;;;;;;3.42;0.60;;;10.40;99.90;;;;;;5035895;28;20203;-78
2023/01/15 11:31:15;;;;;;;2.15;0.70;;;10.40;99.90;;;;;;5015499;28;20230;-77
2023/01/15 11:33:59;;;;;;;1.52;0.57;;;10.50;99.90;;;;;;5016052;28;20197;-78
2023/01/15 11:36:27;;;;;;;7.55;1.17;;;10.50;99.90;;;;;;5050943;28;20203;-78
2023/01/15 11:38:53;;;;;;;1.83;0.70;;;10.50;99.90;;;;;;5032826;28;20260;-78
2023/01/15 11:52:51;;;;;;;2.67;0.80;;;10.50;99.90;;;;;;5031523;28;20200;-78
2023/01/15 11:55:21;;;;;;;2.03;1.08;;;10.50;99.90;;;;;;5050506;28;20169;-78
2023/01/15 11:57:48;;;;;;;2.10;0.70;;;10.50;99.90;;;;;;5032404;28;20173;-78
2023/01/15 12:00:44;;;;;;;3.85;0.77;;;10.60;99.90;;;;;;5031627;28;20174;-77
2023/01/15 12:03:19;;;;;;;3.63;0.80;;;10.50;99.90;;;;;;5015546;28;20219;-77
2023/01/15 12:06:04;;;;;;;6.65;2.22;;;10.60;99.90;;;;;;5054117;28;20640;-78
2023/01/15 12:08:41;;;;;;;2.05;0.98;;;10.70;99.90;;;;;;5050326;28;20211;-78
2023/01/15 12:11:38;;;;;;;5.60;2.10;;;10.70;99.90;;;;;;5049549;28;20173;-78
2023/01/15 12:14:28;;;;;;;7.03;1.60;;;10.70;99.90;;;;;;5043593;28;20787;-78
2023/01/15 12:17:17;;;;;;;3.90;1.00;;;10.60;99.90;;;;;;5015960;28;20183;-79
2023/01/15 12:19:54;;;;;;;5.65;1.25;;;10.60;99.90;;;;;;5035440;28;20554;-79
2023/01/15 12:22:37;;;;;;;4.05;1.20;;;10.60;99.90;;;;;;5049756;28;20192;-79
2023/01/15 12:25:24;;;;;;;4.00;0.88;;;10.50;99.90;;;;;;5047817;28;20180;-79
2023/01/15 12:27:55;;;;;;;2.28;1.20;;;10.40;99.90;;;;;;5081100;23;20333;-76
2023/01/15 12:30:31;;;;;;;2.67;0.70;;;10.40;99.90;;;;;;5082195;28;20182;-75
2023/01/15 12:33:08;;;;;;;1.70;0.60;;;10.30;99.90;;;;;;5108569;28;20300;-75
2023/01/15 12:35:45;;;;;;;2.13;0.63;;;10.30;99.90;;;;;;5092018;28;20227;-75
2023/01/15 12:38:36;;;;;;;1.92;0.82;;;10.30;99.90;;;;;;5098601;27;20189;-75
2023/01/15 12:41:10;;;;;;;2.38;0.70;;;10.30;99.90;;;;;;5094620;27;20171;-75
2023/01/15 12:46:30;;;;;;;5.72;1.48;;;10.30;99.90;;;;;;5112071;27;20185;-75
2023/01/15 12:49:29;;;;;;;7.78;1.10;;;10.30;99.90;;;;;;5112244;27;20194;-75
2023/01/15 12:52:22;;;;;;;5.35;1.73;;;10.30;99.90;;;;;;5129341;27;20262;-74
2023/01/15 12:54:58;;;;;;;4.07;1.10;;;10.40;99.90;;;;;;5130562;27;20162;-74
2023/01/15 12:57:33;;;;;;;5.88;0.80;;;10.40;99.90;;;;;;5113916;27;20195;-74
2023/01/15 13:00:18;;;;;;;2.83;1.05;;;10.40;99.90;;;;;;5130268;27;20526;-74
2023/01/15 13:03:19;;;;;;;2.42;0.80;;;10.40;99.90;;;;;;5130078;27;20166;-74
2023/01/15 13:05:49;;;;;;;3.33;0.68;;;10.40;99.90;;;;;;5089042;27;20181;-75
2023/01/15 13:08:56;;;;;;;1.92;0.55;;;10.40;99.90;;;;;;5111762;27;20273;-75
2023/01/15 13:11:22;;;;;;;3.45;0.80;;;10.40;99.90;;;;;;5048615;28;20306;-76
2023/01/15 13:13:56;;;;;;;5.13;0.60;;;10.50;99.90;;;;;;5116095;27;20342;-74
2023/01/15 13:16:56;;;;;;;3.42;0.82;;;10.50;99.90;;;;;;5130209;28;20166;-75
2023/01/15 13:19:45;;;;;;;6.47;0.73;;;10.60;99.90;;;;;;5120208;28;20199;-75
2023/01/15 13:22:18;;;;;;;3.38;0.70;;;10.60;99.90;;;;;;5091220;28;20522;-74
2023/01/15 13:25:00;;;;;;;3.85;0.70;;;10.60;99.90;;;;;;5109579;28;20175;-74
2023/01/15 13:27:46;;;;;;;1.73;0.50;;;10.60;99.90;;;;;;5107934;28;20178;-74
2023/01/15 13:30:27;;;;;;;1.75;0.65;;;10.60;99.90;;;;;;5086910;28;20646;-74
2023/01/15 13:32:57;;;;;;;2.85;0.60;;;10.60;99.90;;;;;;5107748;28;20195;-74
2023/01/15 13:35:46;;;;;;;3.90;0.70;;;10.50;99.90;;;;;;5107903;28;20167;-75
2023/01/15 13:38:19;;;;;;;2.08;0.70;;;10.50;99.90;;;;;;5112644;28;20183;-74
2023/01/15 13:40:50;;;;;;;2.60;0.93;;;10.50;99.90;;;;;;5112870;28;20155;-74
2023/01/15 13:43:33;;;;;;;3.28;1.00;;;10.40;99.90;;;;;;5112946;28;20178;-74
2023/01/15 13:46:02;;;;;;;2.45;0.77;;;10.40;99.90;;;;;;5112035;28;20273;-73
2023/01/15 13:48:36;;;;;;;2.20;0.75;;;10.40;99.90;;;;;;5112095;28;20570;-76
2023/01/15 13:51:04;;;;;;;4.70;1.20;;;10.30;99.90;;;;;;5112683;28;20170;-74
2023/01/15 13:53:37;;;;;;;4.93;1.02;;;10.30;99.90;;;;;;5113113;28;20199;-74
2023/01/15 13:56:09;;;;;;;4.03;0.70;;;10.40;99.90;;;;;;5112554;28;20167;-74
2023/01/15 13:58:41;;;;;;;1.52;0.60;;;10.40;99.90;;;;;;5095001;28;20191;-74
2023/01/15 14:01:23;;;;;;;2.08;0.70;;;10.50;99.90;;;;;;5093804;28;20174;-74
2023/01/15 14:04:01;;;;;;;2.13;0.60;;;10.50;99.90;;;;;;5111952;28;20178;-74
2023/01/15 14:06:46;;;;;;;5.28;0.65;;;10.50;99.90;;;;;;5077237;28;20183;-74
2023/01/15 14:09:25;;;;;;;4.70;1.05;;;10.60;99.90;;;;;;5113102;28;20251;-74
2023/01/15 14:12:26;;;;;;;1.77;0.55;;;10.70;99.90;;;;;;5111378;28;20178;-74
2023/01/15 14:15:32;;;;;;;1.50;0.70;;;10.70;99.90;;;;;;5079018;28;20178;-74
2023/01/15 14:18:32;;;;;;;3.22;0.70;;;10.70;99.90;;;;;;5077281;28;20198;-74
2023/01/15 14:21:23;;;;;;;4.43;0.75;;;10.80;99.90;;;;;;5094031;28;20202;-74